Time;durP1;ratioP1;P1;durP2;ratioP2;P2;SDS_P1;SDS_P2;PMS_P1;PMS_P2;Temp;Humidity;BMP_temperature;BMP_pressure;BME280_temperature;BME280_humidity;BME280_pressure;Samples;Min_cycle;Max_cycle;Signal;HPM_P1;HPM_P2
2020/12/25 00:00:15;;;;;;;25.87;12.37;;;5.70;88.20;;;;;;5036407;28;20032;-80
2020/12/25 00:02:41;;;;;;;19.50;7.43;;;5.70;88.50;;;;;;5052660;28;20036;-79
2020/12/25 00:05:07;;;;;;;14.83;3.93;;;5.70;88.80;;;;;;5070245;28;20033;-79
2020/12/25 00:07:33;;;;;;;17.57;5.80;;;5.70;88.30;;;;;;5070502;28;20040;-78
2020/12/25 00:09:58;;;;;;;12.40;4.83;;;5.60;87.90;;;;;;5069948;28;20017;-80
2020/12/25 00:12:24;;;;;;;15.57;5.63;;;5.60;88.00;;;;;;5052331;28;20029;-78
2020/12/25 00:14:50;;;;;;;22.23;8.10;;;5.50;88.10;;;;;;5036929;28;20337;-79
2020/12/25 00:17:15;;;;;;;14.03;6.17;;;5.50;88.30;;;;;;5070583;28;20495;-79
2020/12/25 00:19:41;;;;;;;23.57;11.20;;;5.50;88.50;;;;;;5068558;28;20040;-77
2020/12/25 00:22:07;;;;;;;16.57;7.47;;;5.60;88.80;;;;;;5089669;28;20460;-77
2020/12/25 00:24:32;;;;;;;15.20;6.33;;;5.70;88.80;;;;;;5089413;28;20028;-78
2020/12/25 00:26:58;;;;;;;18.97;7.87;;;5.80;89.00;;;;;;5089969;28;20029;-78
2020/12/25 00:29:23;;;;;;;10.03;2.70;;;5.80;88.80;;;;;;5089168;28;20034;-77
2020/12/25 00:31:49;;;;;;;17.20;7.70;;;5.80;88.30;;;;;;5091224;28;20032;-77
2020/12/25 00:34:15;;;;;;;15.67;6.03;;;5.70;88.30;;;;;;5091257;28;20024;-78
2020/12/25 00:36:43;;;;;;;19.60;7.37;;;5.70;88.00;;;;;;5089581;28;20455;-78
2020/12/25 00:39:17;;;;;;;12.03;5.00;;;5.60;88.00;;;;;;5089953;28;20132;-78
2020/12/25 00:41:44;;;;;;;11.17;2.50;;;5.60;88.10;;;;;;5088986;28;20112;-78
2020/12/25 00:44:10;;;;;;;12.10;4.70;;;5.50;87.70;;;;;;5091305;28;20024;-78
2020/12/25 00:46:35;;;;;;;13.57;4.77;;;5.50;88.00;;;;;;5088877;28;20032;-78
2020/12/25 00:49:01;;;;;;;14.07;5.33;;;5.50;88.10;;;;;;5079970;28;20033;-77
2020/12/25 00:51:27;;;;;;;18.57;6.73;;;5.50;87.80;;;;;;5071783;28;20036;-78
2020/12/25 00:53:52;;;;;;;14.43;4.97;;;5.50;88.30;;;;;;5090931;28;20102;-78
2020/12/25 00:56:18;;;;;;;14.83;5.43;;;5.50;88.10;;;;;;5089542;28;20024;-79
2020/12/25 00:58:44;;;;;;;13.87;4.77;;;5.50;88.10;;;;;;5071808;28;20032;-78
2020/12/25 01:01:11;;;;;;;18.07;7.53;;;5.50;88.40;;;;;;5072867;28;20032;-78
2020/12/25 01:03:38;;;;;;;23.13;7.97;;;5.60;88.50;;;;;;5071934;28;20032;-77
2020/12/25 01:06:21;;;;;;;15.80;5.33;;;5.60;88.60;;;;;;5089917;28;20031;-78
2020/12/25 01:08:48;;;;;;;13.40;4.38;;;5.70;88.60;;;;;;5089380;28;20032;-78
2020/12/25 01:11:15;;;;;;;11.97;3.57;;;5.70;88.40;;;;;;5089729;28;20027;-79
2020/12/25 01:13:43;;;;;;;9.60;2.87;;;5.60;87.90;;;;;;5088817;28;20052;-78
2020/12/25 01:16:15;;;;;;;11.60;4.13;;;5.50;87.60;;;;;;5089296;28;20024;-78
2020/12/25 01:18:44;;;;;;;15.40;3.93;;;5.50;87.90;;;;;;5070528;28;20025;-78
2020/12/25 01:21:09;;;;;;;10.73;1.80;;;5.50;87.90;;;;;;5072677;28;20043;-77
2020/12/25 01:23:35;;;;;;;8.07;2.20;;;5.50;87.70;;;;;;5071762;28;20028;-78
2020/12/25 01:26:01;;;;;;;12.67;2.90;;;5.40;87.20;;;;;;5067286;28;20032;-78
2020/12/25 01:28:27;;;;;;;9.87;2.30;;;5.40;87.40;;;;;;5079179;28;20052;-77
2020/12/25 01:30:53;;;;;;;13.37;4.03;;;5.40;87.10;;;;;;5079826;28;20328;-78
2020/12/25 01:33:18;;;;;;;10.40;3.47;;;5.40;87.60;;;;;;5096826;28;20492;-77
2020/12/25 01:35:44;;;;;;;13.97;2.73;;;5.40;87.60;;;;;;5114382;28;20597;-77
2020/12/25 01:38:09;;;;;;;11.47;3.47;;;5.40;87.70;;;;;;5114865;28;20024;-77
2020/12/25 01:40:35;;;;;;;12.70;3.27;;;5.40;87.30;;;;;;5114129;28;20032;-77
2020/12/25 01:43:01;;;;;;;8.80;2.33;;;5.50;88.00;;;;;;5079715;28;20050;-78
2020/12/25 01:45:26;;;;;;;11.87;4.33;;;5.40;87.60;;;;;;5095752;28;20024;-77
2020/12/25 01:47:54;;;;;;;13.63;3.23;;;5.40;87.80;;;;;;5079238;28;20034;-78
2020/12/25 01:50:21;;;;;;;13.33;4.03;;;5.40;87.90;;;;;;5114842;28;20550;-77
2020/12/25 01:52:48;;;;;;;10.47;2.43;;;5.40;88.00;;;;;;5095542;28;20380;-77
2020/12/25 01:55:15;;;;;;;10.10;3.27;;;5.30;87.80;;;;;;5096409;28;20019;-77
2020/12/25 01:57:41;;;;;;;10.87;2.10;;;5.20;87.80;;;;;;5094953;28;20027;-76
2020/12/25 02:00:07;;;;;;;10.80;2.03;;;5.10;87.90;;;;;;5096966;28;20524;-77
2020/12/25 02:02:33;;;;;;;14.40;3.20;;;5.00;87.80;;;;;;5096211;28;20028;-78
2020/12/25 02:05:00;;;;;;;8.03;1.97;;;4.90;88.30;;;;;;5096562;28;20382;-78
2020/12/25 02:07:26;;;;;;;8.80;2.10;;;4.90;88.40;;;;;;5101217;28;20028;-78
2020/12/25 02:09:51;;;;;;;9.03;2.50;;;4.70;88.50;;;;;;5079202;28;20031;-78
2020/12/25 02:12:17;;;;;;;9.43;2.40;;;4.70;88.90;;;;;;5096397;28;20066;-78
2020/12/25 02:14:43;;;;;;;13.00;2.20;;;4.70;89.20;;;;;;5079166;28;20028;-78
2020/12/25 02:17:09;;;;;;;9.60;3.00;;;4.60;89.20;;;;;;5115543;28;20383;-79
2020/12/25 02:19:39;;;;;;;11.47;1.93;;;4.60;89.40;;;;;;5092467;28;20510;-78
2020/12/25 02:22:05;;;;;;;11.67;1.50;;;4.50;89.50;;;;;;5092883;28;20130;-78
2020/12/25 02:24:31;;;;;;;11.57;1.77;;;4.40;89.40;;;;;;5091516;28;20055;-77
2020/12/25 02:26:57;;;;;;;13.37;2.20;;;4.40;89.50;;;;;;5092132;28;20379;-78
2020/12/25 02:29:22;;;;;;;9.97;2.03;;;4.30;89.50;;;;;;5092198;28;20074;-77
2020/12/25 02:31:48;;;;;;;14.23;1.90;;;4.20;89.50;;;;;;5092426;28;20038;-78
2020/12/25 02:34:14;;;;;;;8.53;1.80;;;4.20;89.60;;;;;;5091961;28;20031;-79
2020/12/25 02:36:39;;;;;;;15.60;3.20;;;4.10;89.90;;;;;;5091039;28;20036;-78
2020/12/25 02:39:05;;;;;;;6.47;1.43;;;4.10;89.90;;;;;;5075368;28;20069;-77
2020/12/25 02:41:31;;;;;;;9.80;2.00;;;4.10;90.00;;;;;;5091204;28;20055;-77
2020/12/25 02:43:57;;;;;;;12.83;2.30;;;4.10;90.10;;;;;;5091780;28;20024;-77
2020/12/25 02:46:26;;;;;;;7.70;1.63;;;4.00;90.00;;;;;;5091801;28;20031;-77
2020/12/25 02:48:51;;;;;;;12.33;1.47;;;3.90;90.10;;;;;;5089989;28;20108;-78
2020/12/25 02:51:18;;;;;;;7.87;1.20;;;3.90;90.40;;;;;;5091615;28;20467;-77
2020/12/25 02:53:44;;;;;;;13.73;2.00;;;3.90;90.20;;;;;;5074098;28;20044;-79
2020/12/25 02:56:16;;;;;;;9.80;2.07;;;3.80;90.20;;;;;;5092941;28;20059;-78
2020/12/25 02:58:41;;;;;;;14.67;2.00;;;3.80;90.30;;;;;;5090965;28;20020;-78
2020/12/25 03:01:10;;;;;;;8.70;1.27;;;3.80;90.40;;;;;;5091585;28;20122;-78
2020/12/25 03:03:36;;;;;;;9.97;1.70;;;3.80;90.30;;;;;;5090941;28;20043;-77
2020/12/25 03:06:01;;;;;;;8.47;1.60;;;3.70;90.30;;;;;;5092969;28;20035;-78
2020/12/25 03:08:27;;;;;;;8.53;1.97;;;3.60;90.30;;;;;;5091335;28;20551;-78
2020/12/25 03:10:53;;;;;;;8.70;1.30;;;3.60;90.40;;;;;;5092223;28;20040;-78
2020/12/25 03:13:18;;;;;;;17.30;1.97;;;3.60;90.50;;;;;;5074531;28;20036;-78
2020/12/25 03:15:44;;;;;;;10.17;1.67;;;3.60;90.60;;;;;;5073984;28;20539;-77
2020/12/25 03:18:09;;;;;;;9.73;1.50;;;3.60;90.60;;;;;;5092329;28;20032;-77
2020/12/25 03:20:35;;;;;;;11.37;1.90;;;3.70;90.60;;;;;;5073592;28;20055;-78
2020/12/25 03:23:00;;;;;;;7.90;1.43;;;3.70;90.60;;;;;;5091397;28;20032;-79
2020/12/25 03:25:26;;;;;;;11.53;1.43;;;3.70;90.60;;;;;;5057980;28;20033;-77
2020/12/25 03:27:51;;;;;;;6.77;1.10;;;3.60;90.60;;;;;;5090645;28;20028;-78
2020/12/25 03:30:17;;;;;;;9.37;1.13;;;3.70;90.70;;;;;;5074312;28;20422;-78
2020/12/25 03:32:43;;;;;;;9.53;1.30;;;3.60;90.60;;;;;;5090378;28;20043;-77
2020/12/25 03:35:08;;;;;;;7.60;1.30;;;3.60;90.70;;;;;;5074662;28;20028;-77
2020/12/25 03:37:34;;;;;;;7.27;1.00;;;3.50;90.60;;;;;;5091134;28;20056;-77
2020/12/25 03:40:01;;;;;;;5.60;1.00;;;3.50;90.70;;;;;;5090841;28;20067;-77
2020/12/25 03:42:27;;;;;;;7.27;1.37;;;3.50;90.70;;;;;;5057926;28;20036;-77
2020/12/25 03:44:54;;;;;;;7.17;1.13;;;3.50;90.80;;;;;;5090494;28;20107;-77
2020/12/25 03:47:22;;;;;;;13.07;1.63;;;3.50;90.80;;;;;;5074230;28;20077;-77
2020/12/25 03:49:48;;;;;;;12.00;1.77;;;3.40;90.80;;;;;;5089955;28;20036;-77
2020/12/25 03:52:13;;;;;;;6.63;1.07;;;3.40;90.80;;;;;;5074458;28;20552;-76
2020/12/25 03:54:39;;;;;;;10.70;1.53;;;3.40;90.80;;;;;;5090300;28;20035;-78
2020/12/25 03:57:04;;;;;;;5.37;1.20;;;3.40;90.90;;;;;;5074023;28;20028;-77
2020/12/25 03:59:31;;;;;;;9.50;1.60;;;3.40;90.90;;;;;;5090906;28;20035;-77
2020/12/25 04:01:57;;;;;;;4.83;0.70;;;3.50;90.90;;;;;;5090318;28;20032;-77
2020/12/25 04:04:22;;;;;;;9.77;1.30;;;3.40;90.80;;;;;;5090927;28;20388;-77
2020/12/25 04:06:48;;;;;;;9.20;0.90;;;3.30;90.80;;;;;;5089521;28;20047;-77
2020/12/25 04:09:14;;;;;;;13.87;1.60;;;3.30;90.90;;;;;;5090816;28;20067;-76
2020/12/25 04:11:39;;;;;;;11.63;1.47;;;3.40;91.00;;;;;;5072790;28;20510;-77
2020/12/25 04:14:05;;;;;;;8.30;1.27;;;3.40;90.90;;;;;;5073761;28;20503;-76
2020/12/25 04:16:30;;;;;;;7.73;1.30;;;3.60;91.00;;;;;;5090660;28;20110;-76
2020/12/25 04:18:56;;;;;;;10.00;0.80;;;3.60;91.00;;;;;;5057425;28;20062;-76
2020/12/25 04:21:22;;;;;;;11.80;1.40;;;3.70;91.00;;;;;;5073473;28;20054;-77
2020/12/25 04:23:47;;;;;;;10.53;1.20;;;3.60;90.90;;;;;;5072839;28;20479;-76
2020/12/25 04:26:13;;;;;;;9.60;1.10;;;3.70;90.90;;;;;;5091295;28;20146;-77
2020/12/25 04:28:38;;;;;;;11.70;1.23;;;3.70;90.90;;;;;;5072698;28;20379;-77
2020/12/25 04:31:04;;;;;;;5.70;0.83;;;3.70;90.90;;;;;;5091359;28;20047;-77
2020/12/25 04:33:31;;;;;;;7.10;1.37;;;3.60;90.90;;;;;;5089955;28;20085;-76
2020/12/25 04:35:56;;;;;;;7.67;1.00;;;3.60;91.00;;;;;;5090320;28;20024;-77
2020/12/25 04:38:22;;;;;;;10.50;0.87;;;3.60;91.00;;;;;;5072640;28;20036;-76
2020/12/25 04:40:48;;;;;;;4.97;1.10;;;3.60;91.00;;;;;;5068284;28;20392;-76
2020/12/25 04:43:14;;;;;;;7.80;0.70;;;3.60;91.00;;;;;;5070858;28;20082;-76
2020/12/25 04:45:40;;;;;;;9.17;0.80;;;3.60;90.90;;;;;;5069073;28;20025;-77
2020/12/25 04:48:06;;;;;;;9.43;0.83;;;3.60;90.90;;;;;;5053308;28;20426;-77
2020/12/25 04:50:32;;;;;;;6.67;1.40;;;3.60;90.80;;;;;;5087673;28;20036;-77
2020/12/25 04:52:59;;;;;;;8.40;0.90;;;3.60;90.90;;;;;;5090065;28;20064;-76
2020/12/25 04:55:25;;;;;;;7.50;0.80;;;3.70;91.00;;;;;;5089836;28;20376;-77
2020/12/25 04:57:51;;;;;;;6.50;0.87;;;3.60;91.00;;;;;;5089240;28;20050;-77
2020/12/25 05:00:21;;;;;;;5.97;1.07;;;3.60;90.90;;;;;;5074274;28;20020;-77
2020/12/25 05:02:51;;;;;;;5.77;0.63;;;3.50;91.00;;;;;;5099800;28;20028;-78
2020/12/25 05:05:28;;;;;;;5.53;0.70;;;3.60;91.10;;;;;;5106286;28;20096;-77
2020/12/25 05:07:54;;;;;;;8.70;0.73;;;3.50;91.00;;;;;;5106136;28;20111;-78
2020/12/25 05:10:20;;;;;;;4.93;0.67;;;3.50;91.00;;;;;;5105513;28;20103;-80
2020/12/25 05:12:46;;;;;;;5.60;0.80;;;3.50;91.00;;;;;;5107731;28;20071;-77
2020/12/25 05:15:12;;;;;;;6.20;0.80;;;3.50;91.00;;;;;;5091950;28;20490;-77
2020/12/25 05:17:41;;;;;;;5.63;0.50;;;3.50;91.10;;;;;;5090341;28;20371;-79
2020/12/25 05:20:06;;;;;;;4.53;0.70;;;3.50;91.10;;;;;;5105675;28;20138;-78
2020/12/25 05:22:32;;;;;;;6.17;1.00;;;3.50;91.10;;;;;;5090632;28;20510;-79
2020/12/25 05:25:05;;;;;;;8.80;1.00;;;3.50;91.10;;;;;;5075599;28;20597;-79
2020/12/25 05:27:31;;;;;;;10.07;1.20;;;3.40;91.10;;;;;;5093160;28;20053;-79
2020/12/25 05:30:01;;;;;;;6.00;0.60;;;3.40;91.10;;;;;;5110297;28;20024;-76
2020/12/25 05:32:29;;;;;;;5.83;0.80;;;3.40;91.10;;;;;;5110260;28;20035;-76
2020/12/25 05:34:56;;;;;;;9.60;1.30;;;3.40;91.10;;;;;;5110329;28;20107;-79
2020/12/25 05:37:32;;;;;;;5.00;0.60;;;3.40;91.00;;;;;;5093335;28;20061;-77
2020/12/25 05:40:00;;;;;;;7.17;1.13;;;3.40;91.00;;;;;;5092229;28;20177;-77
2020/12/25 05:42:25;;;;;;;7.93;1.40;;;3.30;90.90;;;;;;5111424;28;20039;-76
2020/12/25 05:44:51;;;;;;;4.93;1.20;;;3.30;91.00;;;;;;5075239;28;20051;-76
2020/12/25 05:47:17;;;;;;;5.63;0.90;;;3.30;91.00;;;;;;5092550;28;20463;-77
2020/12/25 05:49:44;;;;;;;5.13;0.70;;;3.40;91.10;;;;;;5092887;28;20024;-78
2020/12/25 05:52:12;;;;;;;9.80;1.03;;;3.50;91.10;;;;;;5095172;28;20023;-77
2020/12/25 05:54:40;;;;;;;3.63;0.70;;;3.50;91.00;;;;;;5092635;28;20387;-76
2020/12/25 05:57:07;;;;;;;4.70;0.87;;;3.50;91.10;;;;;;5110818;28;20107;-77
2020/12/25 05:59:34;;;;;;;3.57;0.83;;;3.50;91.10;;;;;;5092571;28;20352;-80
2020/12/25 06:02:02;;;;;;;8.53;1.00;;;3.50;91.00;;;;;;5110122;28;20679;-80
2020/12/25 06:04:30;;;;;;;5.37;0.80;;;3.50;91.00;;;;;;5110851;28;20028;-77
2020/12/25 06:06:56;;;;;;;4.03;0.63;;;3.60;91.00;;;;;;5091743;28;20475;-80
2020/12/25 06:09:30;;;;;;;8.33;1.30;;;3.50;90.90;;;;;;5092403;28;20028;-76
2020/12/25 06:11:56;;;;;;;3.63;1.00;;;3.50;90.90;;;;;;5094412;28;20036;-76
2020/12/25 06:14:22;;;;;;;5.50;1.10;;;3.50;90.90;;;;;;5096178;28;20382;-77
2020/12/25 06:17:09;;;;;;;8.23;1.50;;;3.40;91.00;;;;;;5095305;28;20027;-79
2020/12/25 06:19:43;;;;;;;4.33;0.90;;;3.40;91.00;;;;;;5113993;28;20093;-79
2020/12/25 06:22:19;;;;;;;7.07;0.97;;;3.40;91.00;;;;;;5114186;28;20028;-80
2020/12/25 06:24:47;;;;;;;6.77;1.90;;;3.30;90.90;;;;;;5095063;28;20028;-79
2020/12/25 06:27:14;;;;;;;6.10;1.50;;;3.30;90.90;;;;;;5079079;28;20034;-79
2020/12/25 06:29:42;;;;;;;5.77;1.40;;;3.20;90.90;;;;;;5114203;28;20028;-79
2020/12/25 06:32:10;;;;;;;5.20;0.93;;;3.20;90.90;;;;;;5113722;28;20085;-79
2020/12/25 06:34:43;;;;;;;8.00;1.27;;;3.20;90.90;;;;;;5113950;28;20043;-79
2020/12/25 06:37:11;;;;;;;6.47;0.80;;;3.20;91.00;;;;;;5095552;28;20080;-79
2020/12/25 06:39:37;;;;;;;8.80;1.23;;;3.20;90.90;;;;;;5095871;28;20020;-79
2020/12/25 06:42:03;;;;;;;5.77;0.80;;;3.20;90.90;;;;;;5094620;28;20031;-80
2020/12/25 06:44:29;;;;;;;4.70;0.60;;;3.10;90.90;;;;;;5078931;28;20516;-79
2020/12/25 06:47:01;;;;;;;2.43;0.60;;;3.10;90.90;;;;;;5113042;28;20115;-79
2020/12/25 06:49:34;;;;;;;4.63;0.60;;;3.20;91.00;;;;;;5095237;28;20028;-80
2020/12/25 06:52:00;;;;;;;3.22;0.65;;;3.30;91.00;;;;;;5094227;28;20059;-80
2020/12/25 06:54:26;;;;;;;2.60;0.60;;;3.40;91.10;;;;;;5095145;28;20383;-79
2020/12/25 06:56:53;;;;;;;2.27;0.60;;;3.40;91.10;;;;;;5077621;28;20024;-79
2020/12/25 06:59:23;;;;;;;4.10;1.10;;;3.40;91.10;;;;;;5095259;28;20043;-80
2020/12/25 07:01:50;;;;;;;3.93;1.07;;;3.40;91.00;;;;;;5094252;28;20076;-79
2020/12/25 07:04:32;;;;;;;3.10;0.80;;;3.40;91.00;;;;;;5094998;28;20565;-80
2020/12/25 07:07:01;;;;;;;5.73;1.00;;;3.50;91.00;;;;;;5094117;28;20066;-80
2020/12/25 07:10:00;;;;;;;4.57;0.70;;;3.50;91.00;;;;;;5094716;28;20036;-80
2020/12/25 07:12:26;;;;;;;3.20;0.40;;;3.50;91.00;;;;;;5080248;28;20048;-80
2020/12/25 07:14:51;;;;;;;7.30;0.60;;;3.50;90.90;;;;;;5093984;28;20034;-79
2020/12/25 07:17:17;;;;;;;15.13;1.47;;;3.40;90.90;;;;;;5095210;28;20117;-79
2020/12/25 07:19:43;;;;;;;5.77;0.70;;;3.40;90.90;;;;;;5079747;28;20408;-78
2020/12/25 07:22:09;;;;;;;4.80;0.90;;;3.40;91.00;;;;;;5053413;28;20499;-80
2020/12/25 07:24:40;;;;;;;3.00;1.10;;;3.60;91.20;;;;;;5071413;28;20032;-79
2020/12/25 07:27:07;;;;;;;3.87;0.97;;;3.70;91.20;;;;;;5070336;28;20550;-80
2020/12/25 07:29:34;;;;;;;6.40;1.40;;;3.90;91.50;;;;;;5071404;28;20040;-80
2020/12/25 07:32:00;;;;;;;6.03;1.70;;;3.90;91.40;;;;;;5070298;28;20124;-80
2020/12/25 07:34:26;;;;;;;6.53;1.50;;;4.00;91.30;;;;;;5054167;28;20178;-79
2020/12/25 07:36:54;;;;;;;6.37;1.87;;;4.00;91.20;;;;;;5069028;28;20460;-79
2020/12/25 07:39:25;;;;;;;4.27;1.73;;;3.90;91.10;;;;;;5070675;28;20481;-80
2020/12/25 07:41:51;;;;;;;4.70;2.13;;;3.90;91.20;;;;;;5069556;28;20033;-79
2020/12/25 07:44:18;;;;;;;5.63;2.90;;;3.80;91.00;;;;;;5070885;28;20043;-80
2020/12/25 07:46:44;;;;;;;7.53;2.10;;;3.80;91.10;;;;;;5071923;28;20032;-80
2020/12/25 07:49:10;;;;;;;5.90;2.03;;;3.80;91.10;;;;;;5061084;28;20037;-80
2020/12/25 07:51:36;;;;;;;6.40;1.57;;;3.80;91.20;;;;;;5056011;28;20041;-78
2020/12/25 07:54:03;;;;;;;8.67;3.20;;;3.70;91.00;;;;;;5062087;28;20353;-79
2020/12/25 07:56:31;;;;;;;6.20;2.43;;;3.80;91.20;;;;;;5030294;28;20099;-80
2020/12/25 07:58:58;;;;;;;8.77;2.30;;;3.90;91.20;;;;;;5062769;28;20451;-80
2020/12/25 08:01:25;;;;;;;9.37;3.53;;;3.90;91.10;;;;;;5067020;28;20104;-80
2020/12/25 08:03:52;;;;;;;7.90;3.00;;;4.00;91.30;;;;;;5060988;28;20032;-80
2020/12/25 08:06:20;;;;;;;8.63;2.57;;;4.10;91.50;;;;;;5058872;28;20024;-80
2020/12/25 08:08:52;;;;;;;10.37;2.03;;;4.20;91.40;;;;;;5061320;28;20065;-80
2020/12/25 08:11:23;;;;;;;13.30;3.53;;;4.40;91.70;;;;;;5077075;28;20024;-80
2020/12/25 08:13:50;;;;;;;11.20;3.70;;;4.70;92.20;;;;;;5076904;28;20287;-81
2020/12/25 08:16:16;;;;;;;9.20;4.07;;;5.10;92.40;;;;;;5073811;28;20081;-79
2020/12/25 08:18:42;;;;;;;9.40;4.20;;;5.50;92.30;;;;;;5076059;28;20070;-80
2020/12/25 08:21:08;;;;;;;7.70;2.87;;;5.90;91.50;;;;;;5065105;28;20657;-81
2020/12/25 08:23:35;;;;;;;14.27;5.17;;;6.20;90.60;;;;;;5099476;28;20045;-80
2020/12/25 08:26:03;;;;;;;11.43;5.43;;;6.40;89.20;;;;;;5102116;28;20144;-78
2020/12/25 08:28:32;;;;;;;14.67;7.40;;;6.60;87.70;;;;;;5084595;28;20023;-80
2020/12/25 08:31:11;;;;;;;14.73;8.53;;;6.60;86.40;;;;;;5092968;28;20031;-80
2020/12/25 08:33:37;;;;;;;17.80;8.20;;;6.60;85.80;;;;;;5100667;28;20081;-80
2020/12/25 08:36:11;;;;;;;15.63;6.87;;;6.60;84.80;;;;;;5112697;28;20031;-78
2020/12/25 08:38:44;;;;;;;21.23;10.80;;;6.40;84.20;;;;;;5080233;28;20478;-79
2020/12/25 08:41:10;;;;;;;15.93;7.53;;;6.40;84.60;;;;;;5077291;28;20031;-79
2020/12/25 08:43:35;;;;;;;16.17;8.40;;;6.50;85.30;;;;;;5094577;28;20044;-78
2020/12/25 08:46:03;;;;;;;17.17;8.70;;;6.60;84.60;;;;;;5092247;28;20039;-79
2020/12/25 08:48:30;;;;;;;12.63;6.70;;;6.60;84.20;;;;;;5093081;28;20042;-79
2020/12/25 08:51:32;;;;;;;13.37;6.53;;;6.60;83.80;;;;;;5110428;28;20103;-78
2020/12/25 08:53:57;;;;;;;24.80;10.30;;;6.90;84.10;;;;;;5085415;28;20399;-79
2020/12/25 08:56:26;;;;;;;19.80;8.07;;;7.00;82.70;;;;;;5110742;28;20023;-79
2020/12/25 08:59:04;;;;;;;26.63;10.97;;;6.90;81.40;;;;;;5110615;28;20030;-79
2020/12/25 09:01:37;;;;;;;28.37;14.97;;;6.70;81.80;;;;;;5092844;28;20019;-79
2020/12/25 09:04:03;;;;;;;;;;;6.50;83.20;;;;;;5092149;28;20463;-79
2020/12/25 09:06:29;;;;;;;25.77;13.97;;;6.40;83.40;;;;;;5093213;28;19915;-80
2020/12/25 09:08:55;;;;;;;25.07;11.27;;;6.30;84.10;;;;;;5092165;28;20027;-79
2020/12/25 09:11:22;;;;;;;17.27;7.00;;;6.20;84.90;;;;;;5092930;28;20027;-80
2020/12/25 09:13:48;;;;;;;15.33;6.87;;;6.10;84.60;;;;;;5110540;28;20114;-79
2020/12/25 09:16:14;;;;;;;18.37;8.23;;;6.00;84.80;;;;;;5075328;28;20172;-78
2020/12/25 09:18:41;;;;;;;12.53;6.13;;;5.90;85.30;;;;;;5092472;28;20384;-79
2020/12/25 09:21:09;;;;;;;19.83;9.03;;;5.90;85.60;;;;;;5075727;28;20416;-79
2020/12/25 09:23:36;;;;;;;17.53;9.63;;;5.90;85.90;;;;;;5092878;28;20363;-79
2020/12/25 09:26:04;;;;;;;20.97;10.57;;;5.90;86.60;;;;;;5090542;28;20087;-79
2020/12/25 09:28:30;;;;;;;21.30;9.77;;;5.90;86.70;;;;;;5082874;28;20379;-79
2020/12/25 09:30:55;;;;;;;15.80;8.70;;;5.90;86.70;;;;;;5057991;28;20128;-79
2020/12/25 09:33:22;;;;;;;19.97;8.03;;;5.80;86.40;;;;;;5091527;28;20040;-78
2020/12/25 09:35:48;;;;;;;19.10;10.03;;;5.70;85.70;;;;;;5092654;28;20080;-80
2020/12/25 09:38:14;;;;;;;16.43;6.57;;;5.80;86.80;;;;;;5075106;28;20370;-79
2020/12/25 09:40:40;;;;;;;11.97;6.50;;;5.80;86.10;;;;;;5075584;28;20482;-79
2020/12/25 09:43:05;;;;;;;11.50;5.00;;;5.90;86.00;;;;;;5091434;28;20353;-79
2020/12/25 09:45:31;;;;;;;15.93;7.67;;;5.90;85.30;;;;;;5093727;28;20035;-79
2020/12/25 09:47:57;;;;;;;9.67;5.20;;;5.90;85.40;;;;;;5080432;28;20023;-78
2020/12/25 09:50:23;;;;;;;12.73;5.77;;;6.00;84.80;;;;;;5115922;28;20486;-78
2020/12/25 09:52:49;;;;;;;13.00;4.53;;;6.00;84.80;;;;;;5097321;28;20032;-78
2020/12/25 09:55:14;;;;;;;15.80;7.13;;;6.20;85.10;;;;;;5096112;28;20024;-77
2020/12/25 09:57:40;;;;;;;17.80;7.90;;;6.30;84.50;;;;;;5080754;28;20031;-78
2020/12/25 10:00:10;;;;;;;15.90;8.87;;;6.40;84.80;;;;;;5114401;28;20032;-80
2020/12/25 10:02:37;;;;;;;17.97;6.77;;;6.60;84.80;;;;;;5079432;28;20122;-80
2020/12/25 10:05:08;;;;;;;14.40;5.27;;;6.70;84.00;;;;;;5095447;28;20027;-78
2020/12/25 10:07:33;;;;;;;9.57;3.90;;;7.10;84.70;;;;;;5096836;28;20031;-79
2020/12/25 10:09:59;;;;;;;10.70;4.50;;;7.70;82.80;;;;;;5113622;28;20027;-78
2020/12/25 10:12:25;;;;;;;11.57;3.93;;;8.40;81.40;;;;;;5096004;28;20035;-77
2020/12/25 10:14:51;;;;;;;13.03;6.20;;;8.90;79.00;;;;;;5096400;28;20027;-78
2020/12/25 10:17:17;;;;;;;12.67;4.93;;;9.50;78.30;;;;;;5095535;28;20967;-78
2020/12/25 10:19:44;;;;;;;11.63;3.70;;;9.90;75.90;;;;;;5075150;28;20522;-79
2020/12/25 10:22:10;;;;;;;6.50;1.37;;;10.20;73.90;;;;;;5074827;28;20028;-79
2020/12/25 10:24:35;;;;;;;7.83;1.23;;;10.40;71.90;;;;;;5092656;28;20039;-79
2020/12/25 10:27:01;;;;;;;4.07;0.90;;;10.50;70.90;;;;;;5074907;28;20056;-79
2020/12/25 10:29:28;;;;;;;8.37;1.47;;;10.70;70.30;;;;;;5075869;28;20028;-79
2020/12/25 10:31:54;;;;;;;7.03;2.20;;;10.70;69.50;;;;;;5092856;28;20028;-78
2020/12/25 10:34:20;;;;;;;6.93;1.30;;;11.00;69.40;;;;;;5092996;28;20024;-80
2020/12/25 10:36:46;;;;;;;9.13;1.40;;;11.00;68.10;;;;;;5075391;28;20442;-80
2020/12/25 10:39:12;;;;;;;7.60;1.50;;;11.10;67.70;;;;;;5092790;28;20365;-80
2020/12/25 10:41:38;;;;;;;11.70;3.33;;;11.20;66.90;;;;;;5091445;28;20032;-80
2020/12/25 10:44:04;;;;;;;11.60;2.30;;;11.20;66.60;;;;;;5092279;28;20031;-79
2020/12/25 10:46:30;;;;;;;7.87;1.43;;;11.20;66.20;;;;;;5091673;28;20055;-80
2020/12/25 10:48:55;;;;;;;17.07;6.67;;;11.10;65.20;;;;;;5092510;28;20067;-78
2020/12/25 10:51:21;;;;;;;9.83;2.20;;;10.90;66.00;;;;;;5090787;28;20032;-80
2020/12/25 10:53:48;;;;;;;8.80;3.03;;;11.00;67.00;;;;;;5091392;28;20039;-80
2020/12/25 10:56:40;;;;;;;7.60;0.70;;;11.00;66.00;;;;;;5091514;28;20165;-80
2020/12/25 10:59:05;;;;;;;6.10;0.80;;;10.90;65.00;;;;;;5088758;28;20062;-79
2020/12/25 11:01:31;;;;;;;10.70;2.40;;;10.90;65.60;;;;;;5091563;28;20397;-79
2020/12/25 11:03:58;;;;;;;6.30;1.20;;;11.10;65.70;;;;;;5067749;28;20028;-78
2020/12/25 11:06:31;;;;;;;6.83;0.90;;;11.10;65.20;;;;;;5090253;28;20028;-80
2020/12/25 11:08:57;;;;;;;9.70;1.13;;;11.20;64.80;;;;;;5090867;28;20108;-78
2020/12/25 11:11:34;;;;;;;9.23;1.87;;;11.10;64.20;;;;;;5093110;28;20065;-82
2020/12/25 11:14:00;;;;;;;6.00;1.00;;;11.00;65.10;;;;;;5091507;28;20077;-77
2020/12/25 11:16:27;;;;;;;7.70;2.00;;;11.10;64.90;;;;;;5093658;28;20078;-80
2020/12/25 11:18:58;;;;;;;8.70;1.93;;;11.30;65.50;;;;;;5099089;28;20051;-81
2020/12/25 11:21:28;;;;;;;8.53;2.13;;;11.50;65.20;;;;;;5096349;28;20035;-81
2020/12/25 11:23:55;;;;;;;8.03;1.70;;;11.70;65.30;;;;;;5094897;28;20035;-81
2020/12/25 11:26:21;;;;;;;8.07;1.67;;;11.80;64.00;;;;;;5094697;28;20027;-80
2020/12/25 11:28:47;;;;;;;10.23;3.13;;;11.80;63.10;;;;;;5113628;28;20081;-79
2020/12/25 11:31:13;;;;;;;9.37;1.77;;;11.80;64.20;;;;;;5077980;28;20063;-81
2020/12/25 11:33:39;;;;;;;10.60;2.73;;;11.70;63.10;;;;;;5078719;28;20400;-81
2020/12/25 11:36:06;;;;;;;11.37;2.70;;;11.60;62.80;;;;;;5098805;28;20154;-81
2020/12/25 11:38:31;;;;;;;14.93;4.20;;;11.40;63.50;;;;;;5097625;28;20053;-81
2020/12/25 11:40:57;;;;;;;7.23;1.83;;;11.30;63.70;;;;;;5094062;28;20028;-80
2020/12/25 11:43:22;;;;;;;7.50;3.03;;;11.30;63.90;;;;;;5093871;28;20519;-83
2020/12/25 11:45:48;;;;;;;10.57;2.27;;;11.30;64.10;;;;;;5077511;28;20099;-81
2020/12/25 11:48:14;;;;;;;8.83;1.97;;;11.20;63.60;;;;;;5092685;28;20462;-80
2020/12/25 11:50:39;;;;;;;9.37;1.77;;;11.10;63.40;;;;;;5076774;28;20118;-80
2020/12/25 11:53:05;;;;;;;8.87;1.73;;;11.00;63.70;;;;;;5075612;28;20479;-81
2020/12/25 11:55:30;;;;;;;4.47;1.00;;;11.00;63.40;;;;;;5110555;28;20060;-82
2020/12/25 11:57:56;;;;;;;7.53;1.37;;;11.10;63.60;;;;;;5092961;28;20034;-80
2020/12/25 12:00:21;;;;;;;6.63;1.70;;;11.10;63.30;;;;;;5075980;28;20076;-80
2020/12/25 12:02:47;;;;;;;9.40;3.57;;;10.90;63.60;;;;;;5114127;28;20435;-81
2020/12/25 12:05:13;;;;;;;8.27;1.67;;;10.70;64.50;;;;;;5092936;28;20036;-81
2020/12/25 12:07:38;;;;;;;8.37;3.50;;;10.50;64.30;;;;;;5097186;28;20076;-79
2020/12/25 12:10:04;;;;;;;5.83;1.60;;;10.50;65.40;;;;;;5076363;28;20038;-81
2020/12/25 12:12:29;;;;;;;9.57;3.00;;;10.40;64.20;;;;;;5078396;28;20101;-80
2020/12/25 12:14:55;;;;;;;6.43;1.67;;;10.30;64.90;;;;;;5094510;28;20084;-79
2020/12/25 12:17:21;;;;;;;12.30;4.10;;;10.40;65.30;;;;;;5092295;28;20043;-79
2020/12/25 12:19:46;;;;;;;11.00;3.93;;;10.50;66.10;;;;;;5058759;28;20108;-80
2020/12/25 12:22:12;;;;;;;10.20;3.73;;;10.60;66.00;;;;;;5092301;28;20095;-78
2020/12/25 12:24:37;;;;;;;5.90;0.80;;;10.50;66.20;;;;;;5088740;28;20031;-79
2020/12/25 12:27:03;;;;;;;6.53;2.87;;;10.40;65.60;;;;;;5092032;28;20123;-77
2020/12/25 12:29:29;;;;;;;7.40;0.90;;;10.10;66.10;;;;;;5093893;28;20036;-80
2020/12/25 12:31:54;;;;;;;12.23;3.47;;;9.90;65.60;;;;;;5091222;28;20390;-78
2020/12/25 12:34:20;;;;;;;12.63;4.87;;;9.60;66.90;;;;;;5110204;28;20040;-79
2020/12/25 12:36:46;;;;;;;8.67;2.53;;;9.30;68.10;;;;;;5092984;28;20028;-81
2020/12/25 12:39:12;;;;;;;9.73;2.67;;;9.20;68.70;;;;;;5071910;28;20028;-80
2020/12/25 12:41:38;;;;;;;10.73;3.33;;;9.00;68.90;;;;;;5074370;28;20338;-80
2020/12/25 12:44:03;;;;;;;10.43;4.73;;;8.80;69.80;;;;;;5105022;28;20035;-79
2020/12/25 12:46:29;;;;;;;10.17;2.10;;;8.70;70.40;;;;;;5099229;28;20027;-79
2020/12/25 12:48:54;;;;;;;7.37;3.20;;;8.70;70.20;;;;;;5103345;28;20031;-80